sensor_id;sensor_type;location;lat;lon;timestamp;P1;durP1;ratioP1;P2;durP2;ratioP2
1414;SDS011;702;49.466;11.086;2022-07-12T00:02:09;1.90;;;1.80;;
1414;SDS011;702;49.466;11.086;2022-07-12T00:04:37;1.87;;;1.77;;
1414;SDS011;702;49.466;11.086;2022-07-12T00:07:06;1.70;;;1.60;;
1414;SDS011;702;49.466;11.086;2022-07-12T00:09:33;2.07;;;1.80;;
1414;SDS011;702;49.466;11.086;2022-07-12T00:12:01;2.00;;;1.90;;
1414;SDS011;702;49.466;11.086;2022-07-12T00:14:29;1.83;;;1.73;;
1414;SDS011;702;49.466;11.086;2022-07-12T00:16:56;2.67;;;2.47;;
1414;SDS011;702;49.466;11.086;2022-07-12T00:19:23;1.57;;;1.47;;
1414;SDS011;702;49.466;11.086;2022-07-12T00:21:50;4.43;;;2.00;;
1414;SDS011;702;49.466;11.086;2022-07-12T00:24:19;2.30;;;2.10;;
1414;SDS011;702;49.466;11.086;2022-07-12T00:26:47;1.80;;;1.70;;
1414;SDS011;702;49.466;11.086;2022-07-12T00:29:14;2.30;;;2.07;;
1414;SDS011;702;49.466;11.086;2022-07-12T00:31:42;1.80;;;1.70;;
1414;SDS011;702;49.466;11.086;2022-07-12T00:34:09;2.33;;;2.23;;
1414;SDS011;702;49.466;11.086;2022-07-12T00:36:36;1.97;;;1.87;;
1414;SDS011;702;49.466;11.086;2022-07-12T00:39:03;2.13;;;2.03;;
1414;SDS011;702;49.466;11.086;2022-07-12T00:41:32;3.10;;;2.17;;
1414;SDS011;702;49.466;11.086;2022-07-12T00:44:00;2.40;;;2.30;;
1414;SDS011;702;49.466;11.086;2022-07-12T00:46:27;1.57;;;1.47;;
1414;SDS011;702;49.466;11.086;2022-07-12T00:48:54;2.40;;;2.20;;
1414;SDS011;702;49.466;11.086;2022-07-12T00:51:22;2.17;;;1.70;;
1414;SDS011;702;49.466;11.086;2022-07-12T00:53:51;2.40;;;2.03;;
1414;SDS011;702;49.466;11.086;2022-07-12T00:56:19;2.03;;;1.93;;
1414;SDS011;702;49.466;11.086;2022-07-12T00:58:49;2.27;;;2.07;;
1414;SDS011;702;49.466;11.086;2022-07-12T01:01:16;1.80;;;1.70;;
1414;SDS011;702;49.466;11.086;2022-07-12T01:03:44;2.00;;;1.90;;
1414;SDS011;702;49.466;11.086;2022-07-12T01:06:12;2.07;;;1.97;;
1414;SDS011;702;49.466;11.086;2022-07-12T01:08:39;1.80;;;1.70;;
1414;SDS011;702;49.466;11.086;2022-07-12T01:11:07;2.00;;;1.80;;
1414;SDS011;702;49.466;11.086;2022-07-12T01:13:34;3.17;;;2.30;;
1414;SDS011;702;49.466;11.086;2022-07-12T01:16:04;2.60;;;2.20;;
1414;SDS011;702;49.466;11.086;2022-07-12T01:18:34;2.50;;;2.30;;
1414;SDS011;702;49.466;11.086;2022-07-12T01:21:03;2.60;;;2.40;;
1414;SDS011;702;49.466;11.086;2022-07-12T01:23:32;2.90;;;2.70;;
1414;SDS011;702;49.466;11.086;2022-07-12T01:26:01;4.00;;;3.60;;
1414;SDS011;702;49.466;11.086;2022-07-12T01:28:29;4.70;;;3.40;;
1414;SDS011;702;49.466;11.086;2022-07-12T01:30:57;3.23;;;3.03;;
1414;SDS011;702;49.466;11.086;2022-07-12T01:33:24;3.23;;;2.80;;
1414;SDS011;702;49.466;11.086;2022-07-12T01:35:52;2.93;;;2.60;;
1414;SDS011;702;49.466;11.086;2022-07-12T01:38:20;2.67;;;2.47;;
1414;SDS011;702;49.466;11.086;2022-07-12T01:40:48;2.97;;;2.70;;
1414;SDS011;702;49.466;11.086;2022-07-12T01:43:15;2.90;;;2.70;;
1414;SDS011;702;49.466;11.086;2022-07-12T01:45:44;3.20;;;2.90;;
1414;SDS011;702;49.466;11.086;2022-07-12T01:48:11;6.33;;;2.97;;
1414;SDS011;702;49.466;11.086;2022-07-12T01:50:38;2.70;;;2.50;;
1414;SDS011;702;49.466;11.086;2022-07-12T01:53:06;4.40;;;2.87;;
1414;SDS011;702;49.466;11.086;2022-07-12T01:55:33;2.80;;;2.60;;
1414;SDS011;702;49.466;11.086;2022-07-12T01:58:02;2.60;;;2.47;;
1414;SDS011;702;49.466;11.086;2022-07-12T02:00:30;3.00;;;2.80;;
1414;SDS011;702;49.466;11.086;2022-07-12T02:02:58;2.70;;;2.50;;
1414;SDS011;702;49.466;11.086;2022-07-12T02:05:25;2.80;;;2.57;;
1414;SDS011;702;49.466;11.086;2022-07-12T02:07:53;2.80;;;2.60;;
1414;SDS011;702;49.466;11.086;2022-07-12T02:10:21;2.50;;;2.30;;
1414;SDS011;702;49.466;11.086;2022-07-12T02:12:48;3.00;;;2.80;;
1414;SDS011;702;49.466;11.086;2022-07-12T02:15:17;3.57;;;2.83;;
1414;SDS011;702;49.466;11.086;2022-07-12T02:17:44;3.20;;;3.00;;
1414;SDS011;702;49.466;11.086;2022-07-12T02:20:13;3.03;;;2.83;;
1414;SDS011;702;49.466;11.086;2022-07-12T02:22:40;3.57;;;3.27;;
1414;SDS011;702;49.466;11.086;2022-07-12T02:25:07;3.83;;;3.53;;
1414;SDS011;702;49.466;11.086;2022-07-12T02:27:35;3.57;;;3.33;;
1414;SDS011;702;49.466;11.086;2022-07-12T02:30:05;3.27;;;3.07;;
1414;SDS011;702;49.466;11.086;2022-07-12T02:32:35;3.37;;;3.07;;
1414;SDS011;702;49.466;11.086;2022-07-12T02:35:03;2.90;;;2.67;;
1414;SDS011;702;49.466;11.086;2022-07-12T02:37:30;3.93;;;3.60;;
1414;SDS011;702;49.466;11.086;2022-07-12T02:39:58;4.03;;;3.73;;
1414;SDS011;702;49.466;11.086;2022-07-12T02:42:39;4.23;;;3.93;;
1414;SDS011;702;49.466;11.086;2022-07-12T02:45:07;4.47;;;3.30;;
1414;SDS011;702;49.466;11.086;2022-07-12T02:47:37;4.87;;;3.60;;
1414;SDS011;702;49.466;11.086;2022-07-12T02:50:05;4.00;;;3.70;;
1414;SDS011;702;49.466;11.086;2022-07-12T02:52:33;3.43;;;3.23;;
1414;SDS011;702;49.466;11.086;2022-07-12T02:55:01;3.77;;;3.47;;
1414;SDS011;702;49.466;11.086;2022-07-12T02:57:28;3.43;;;3.23;;
1414;SDS011;702;49.466;11.086;2022-07-12T02:59:55;3.80;;;3.50;;
1414;SDS011;702;49.466;11.086;2022-07-12T03:02:23;3.90;;;3.60;;
1414;SDS011;702;49.466;11.086;2022-07-12T03:04:51;3.60;;;3.40;;
1414;SDS011;702;49.466;11.086;2022-07-12T03:07:19;4.30;;;3.90;;
1414;SDS011;702;49.466;11.086;2022-07-12T03:09:46;4.00;;;3.70;;
1414;SDS011;702;49.466;11.086;2022-07-12T03:12:13;3.90;;;3.60;;
1414;SDS011;702;49.466;11.086;2022-07-12T03:14:41;4.30;;;4.00;;
1414;SDS011;702;49.466;11.086;2022-07-12T03:17:08;4.40;;;4.03;;
1414;SDS011;702;49.466;11.086;2022-07-12T03:19:35;4.60;;;4.20;;
1414;SDS011;702;49.466;11.086;2022-07-12T03:22:04;4.13;;;3.73;;
1414;SDS011;702;49.466;11.086;2022-07-12T03:24:31;3.60;;;3.30;;
1414;SDS011;702;49.466;11.086;2022-07-12T03:26:59;4.23;;;3.93;;
1414;SDS011;702;49.466;11.086;2022-07-12T03:29:26;4.20;;;3.90;;
1414;SDS011;702;49.466;11.086;2022-07-12T03:31:53;5.30;;;4.83;;
1414;SDS011;702;49.466;11.086;2022-07-12T03:34:20;6.03;;;5.53;;
1414;SDS011;702;49.466;11.086;2022-07-12T03:36:48;6.37;;;5.77;;
1414;SDS011;702;49.466;11.086;2022-07-12T03:39:16;4.90;;;4.50;;
1414;SDS011;702;49.466;11.086;2022-07-12T03:41:43;4.57;;;4.10;;
1414;SDS011;702;49.466;11.086;2022-07-12T03:44:11;4.77;;;4.40;;
1414;SDS011;702;49.466;11.086;2022-07-12T03:46:38;4.30;;;4.00;;
1414;SDS011;702;49.466;11.086;2022-07-12T03:49:05;4.27;;;3.90;;
1414;SDS011;702;49.466;11.086;2022-07-12T03:51:33;4.03;;;3.63;;
1414;SDS011;702;49.466;11.086;2022-07-12T03:54:00;3.50;;;3.30;;
1414;SDS011;702;49.466;11.086;2022-07-12T03:56:29;3.83;;;3.53;;
1414;SDS011;702;49.466;11.086;2022-07-12T03:59:14;3.80;;;3.50;;
1414;SDS011;702;49.466;11.086;2022-07-12T04:01:41;4.00;;;3.70;;
1414;SDS011;702;49.466;11.086;2022-07-12T04:04:09;5.20;;;3.40;;
1414;SDS011;702;49.466;11.086;2022-07-12T04:06:37;3.63;;;3.33;;
1414;SDS011;702;49.466;11.086;2022-07-12T04:09:04;3.63;;;3.33;;
1414;SDS011;702;49.466;11.086;2022-07-12T04:11:33;3.73;;;3.43;;
1414;SDS011;702;49.466;11.086;2022-07-12T04:14:00;3.37;;;3.13;;
1414;SDS011;702;49.466;11.086;2022-07-12T04:16:28;5.43;;;3.53;;
1414;SDS011;702;49.466;11.086;2022-07-12T04:18:56;3.37;;;3.17;;
1414;SDS011;702;49.466;11.086;2022-07-12T04:21:23;2.93;;;2.73;;
1414;SDS011;702;49.466;11.086;2022-07-12T04:23:51;3.37;;;2.63;;
1414;SDS011;702;49.466;11.086;2022-07-12T04:26:18;3.03;;;2.83;;
1414;SDS011;702;49.466;11.086;2022-07-12T04:28:47;2.13;;;2.03;;
1414;SDS011;702;49.466;11.086;2022-07-12T04:31:14;3.03;;;2.73;;
1414;SDS011;702;49.466;11.086;2022-07-12T04:33:41;2.37;;;2.27;;
1414;SDS011;702;49.466;11.086;2022-07-12T04:36:08;2.60;;;2.40;;
1414;SDS011;702;49.466;11.086;2022-07-12T04:38:36;2.57;;;2.40;;
1414;SDS011;702;49.466;11.086;2022-07-12T04:41:03;2.60;;;2.10;;
1414;SDS011;702;49.466;11.086;2022-07-12T04:43:32;11.67;;;10.67;;
1414;SDS011;702;49.466;11.086;2022-07-12T04:46:06;2.60;;;2.20;;
1414;SDS011;702;49.466;11.086;2022-07-12T04:48:39;2.70;;;2.50;;
1414;SDS011;702;49.466;11.086;2022-07-12T04:51:06;2.40;;;2.20;;
1414;SDS011;702;49.466;11.086;2022-07-12T04:53:34;2.30;;;2.10;;
1414;SDS011;702;49.466;11.086;2022-07-12T04:56:01;2.67;;;2.43;;
1414;SDS011;702;49.466;11.086;2022-07-12T04:58:29;2.43;;;2.23;;
1414;SDS011;702;49.466;11.086;2022-07-12T05:00:56;2.73;;;2.53;;
1414;SDS011;702;49.466;11.086;2022-07-12T05:03:25;2.70;;;2.50;;
1414;SDS011;702;49.466;11.086;2022-07-12T05:05:53;3.80;;;2.17;;
1414;SDS011;702;49.466;11.086;2022-07-12T05:08:21;2.83;;;2.60;;
1414;SDS011;702;49.466;11.086;2022-07-12T05:10:48;3.13;;;2.83;;
1414;SDS011;702;49.466;11.086;2022-07-12T05:13:16;2.70;;;2.50;;
1414;SDS011;702;49.466;11.086;2022-07-12T05:15:43;2.67;;;2.33;;
1414;SDS011;702;49.466;11.086;2022-07-12T05:18:10;2.07;;;1.97;;
1414;SDS011;702;49.466;11.086;2022-07-12T05:20:39;2.43;;;2.23;;
1414;SDS011;702;49.466;11.086;2022-07-12T05:23:06;2.20;;;2.10;;
1414;SDS011;702;49.466;11.086;2022-07-12T05:25:34;2.17;;;2.00;;
1414;SDS011;702;49.466;11.086;2022-07-12T05:28:01;2.47;;;2.33;;
1414;SDS011;702;49.466;11.086;2022-07-12T05:30:29;3.07;;;2.37;;
1414;SDS011;702;49.466;11.086;2022-07-12T05:32:56;2.30;;;2.20;;
1414;SDS011;702;49.466;11.086;2022-07-12T05:35:23;2.40;;;2.20;;
1414;SDS011;702;49.466;11.086;2022-07-12T05:37:53;2.33;;;2.20;;
1414;SDS011;702;49.466;11.086;2022-07-12T05:40:20;2.40;;;2.20;;
1414;SDS011;702;49.466;11.086;2022-07-12T05:42:47;3.20;;;2.50;;
1414;SDS011;702;49.466;11.086;2022-07-12T05:45:15;3.90;;;1.93;;
1414;SDS011;702;49.466;11.086;2022-07-12T05:47:42;2.77;;;2.57;;
1414;SDS011;702;49.466;11.086;2022-07-12T05:50:09;1.87;;;1.77;;
1414;SDS011;702;49.466;11.086;2022-07-12T05:52:36;2.03;;;1.93;;
1414;SDS011;702;49.466;11.086;2022-07-12T05:55:22;2.13;;;1.77;;
1414;SDS011;702;49.466;11.086;2022-07-12T05:57:50;1.80;;;1.70;;
1414;SDS011;702;49.466;11.086;2022-07-12T06:00:17;2.50;;;2.30;;
1414;SDS011;702;49.466;11.086;2022-07-12T06:02:44;2.23;;;2.03;;
1414;SDS011;702;49.466;11.086;2022-07-12T06:05:11;1.60;;;1.50;;
1414;SDS011;702;49.466;11.086;2022-07-12T06:07:39;2.27;;;2.10;;
1414;SDS011;702;49.466;11.086;2022-07-12T06:10:06;2.23;;;1.80;;
1414;SDS011;702;49.466;11.086;2022-07-12T06:12:35;2.00;;;1.90;;
1414;SDS011;702;49.466;11.086;2022-07-12T06:15:03;4.03;;;2.00;;
1414;SDS011;702;49.466;11.086;2022-07-12T06:17:32;3.83;;;3.13;;
1414;SDS011;702;49.466;11.086;2022-07-12T06:20:00;5.03;;;2.13;;
1414;SDS011;702;49.466;11.086;2022-07-12T06:22:27;1.83;;;1.73;;
1414;SDS011;702;49.466;11.086;2022-07-12T06:24:55;2.50;;;1.93;;
1414;SDS011;702;49.466;11.086;2022-07-12T06:27:22;1.93;;;1.57;;
1414;SDS011;702;49.466;11.086;2022-07-12T06:29:51;2.47;;;1.60;;
1414;SDS011;702;49.466;11.086;2022-07-12T06:32:18;2.47;;;1.80;;
1414;SDS011;702;49.466;11.086;2022-07-12T06:34:45;2.17;;;1.80;;
1414;SDS011;702;49.466;11.086;2022-07-12T06:37:13;1.60;;;1.50;;
1414;SDS011;702;49.466;11.086;2022-07-12T06:39:40;1.70;;;1.60;;
1414;SDS011;702;49.466;11.086;2022-07-12T06:42:09;3.17;;;1.87;;
1414;SDS011;702;49.466;11.086;2022-07-12T06:44:36;2.00;;;1.90;;
1414;SDS011;702;49.466;11.086;2022-07-12T06:47:06;5.00;;;4.13;;
1414;SDS011;702;49.466;11.086;2022-07-12T06:49:33;1.83;;;1.73;;
1414;SDS011;702;49.466;11.086;2022-07-12T06:52:00;2.40;;;2.20;;
1414;SDS011;702;49.466;11.086;2022-07-12T06:54:28;2.23;;;2.13;;
1414;SDS011;702;49.466;11.086;2022-07-12T06:56:55;2.03;;;1.83;;
1414;SDS011;702;49.466;11.086;2022-07-12T06:59:23;2.00;;;1.40;;
1414;SDS011;702;49.466;11.086;2022-07-12T07:01:50;2.43;;;2.07;;
1414;SDS011;702;49.466;11.086;2022-07-12T07:04:19;1.97;;;1.77;;
1414;SDS011;702;49.466;11.086;2022-07-12T07:06:46;1.93;;;1.73;;
1414;SDS011;702;49.466;11.086;2022-07-12T07:09:14;2.67;;;1.80;;
1414;SDS011;702;49.466;11.086;2022-07-12T07:11:41;2.03;;;1.80;;
1414;SDS011;702;49.466;11.086;2022-07-12T07:14:09;2.00;;;1.90;;
1414;SDS011;702;49.466;11.086;2022-07-12T07:16:36;2.27;;;2.07;;
1414;SDS011;702;49.466;11.086;2022-07-12T07:19:04;1.90;;;1.80;;
1414;SDS011;702;49.466;11.086;2022-07-12T07:21:33;2.10;;;1.67;;
1414;SDS011;702;49.466;11.086;2022-07-12T07:24:00;1.77;;;1.67;;
1414;SDS011;702;49.466;11.086;2022-07-12T07:26:29;1.60;;;1.50;;
1414;SDS011;702;49.466;11.086;2022-07-12T07:28:58;1.80;;;1.53;;
1414;SDS011;702;49.466;11.086;2022-07-12T07:31:42;1.80;;;1.70;;
1414;SDS011;702;49.466;11.086;2022-07-12T07:34:10;1.80;;;1.70;;
1414;SDS011;702;49.466;11.086;2022-07-12T07:36:38;2.93;;;1.70;;
1414;SDS011;702;49.466;11.086;2022-07-12T07:39:06;2.10;;;1.90;;
1414;SDS011;702;49.466;11.086;2022-07-12T07:41:33;1.80;;;1.70;;
1414;SDS011;702;49.466;11.086;2022-07-12T07:44:01;1.53;;;1.43;;
1414;SDS011;702;49.466;11.086;2022-07-12T07:46:29;2.27;;;1.60;;
1414;SDS011;702;49.466;11.086;2022-07-12T07:48:56;1.77;;;1.67;;
1414;SDS011;702;49.466;11.086;2022-07-12T07:51:23;1.57;;;1.37;;
1414;SDS011;702;49.466;11.086;2022-07-12T07:53:52;1.70;;;1.60;;
1414;SDS011;702;49.466;11.086;2022-07-12T07:56:19;1.53;;;1.33;;
1414;SDS011;702;49.466;11.086;2022-07-12T07:58:46;1.60;;;1.50;;
1414;SDS011;702;49.466;11.086;2022-07-12T08:01:13;2.07;;;1.60;;
1414;SDS011;702;49.466;11.086;2022-07-12T08:03:41;3.23;;;1.10;;
1414;SDS011;702;49.466;11.086;2022-07-12T08:06:08;1.47;;;1.37;;
1414;SDS011;702;49.466;11.086;2022-07-12T08:08:36;1.53;;;1.37;;
1414;SDS011;702;49.466;11.086;2022-07-12T08:11:04;2.30;;;2.10;;
1414;SDS011;702;49.466;11.086;2022-07-12T08:13:32;1.73;;;1.30;;
1414;SDS011;702;49.466;11.086;2022-07-12T08:15:59;2.73;;;1.37;;
1414;SDS011;702;49.466;11.086;2022-07-12T08:18:26;1.67;;;1.57;;
1414;SDS011;702;49.466;11.086;2022-07-12T08:20:53;1.40;;;1.30;;
1414;SDS011;702;49.466;11.086;2022-07-12T08:23:21;1.87;;;1.47;;
1414;SDS011;702;49.466;11.086;2022-07-12T08:25:50;1.77;;;1.53;;
1414;SDS011;702;49.466;11.086;2022-07-12T08:28:19;1.80;;;1.33;;
1414;SDS011;702;49.466;11.086;2022-07-12T08:30:46;2.00;;;1.30;;
1414;SDS011;702;49.466;11.086;2022-07-12T08:33:14;1.40;;;1.27;;
1414;SDS011;702;49.466;11.086;2022-07-12T08:35:41;0.90;;;0.83;;
1414;SDS011;702;49.466;11.086;2022-07-12T08:38:09;1.33;;;1.20;;
1414;SDS011;702;49.466;11.086;2022-07-12T08:40:37;1.27;;;1.17;;
1414;SDS011;702;49.466;11.086;2022-07-12T08:43:05;3.57;;;1.10;;
1414;SDS011;702;49.466;11.086;2022-07-12T08:45:34;2.17;;;1.20;;
1414;SDS011;702;49.466;11.086;2022-07-12T08:48:01;1.20;;;1.10;;
1414;SDS011;702;49.466;11.086;2022-07-12T08:50:29;2.40;;;1.20;;
1414;SDS011;702;49.466;11.086;2022-07-12T08:52:57;1.37;;;1.07;;
1414;SDS011;702;49.466;11.086;2022-07-12T08:55:26;0.80;;;0.80;;
1414;SDS011;702;49.466;11.086;2022-07-12T08:57:56;1.63;;;1.20;;
1414;SDS011;702;49.466;11.086;2022-07-12T09:00:25;1.33;;;1.23;;
1414;SDS011;702;49.466;11.086;2022-07-12T09:02:55;2.93;;;1.40;;
1414;SDS011;702;49.466;11.086;2022-07-12T09:05:25;1.10;;;1.10;;
1414;SDS011;702;49.466;11.086;2022-07-12T09:08:01;1.10;;;1.00;;
1414;SDS011;702;49.466;11.086;2022-07-12T09:10:31;7.93;;;1.10;;
1414;SDS011;702;49.466;11.086;2022-07-12T09:12:58;1.17;;;1.00;;
1414;SDS011;702;49.466;11.086;2022-07-12T09:15:27;0.80;;;0.80;;
1414;SDS011;702;49.466;11.086;2022-07-12T09:17:57;0.97;;;0.97;;
1414;SDS011;702;49.466;11.086;2022-07-12T09:20:25;1.07;;;1.00;;
1414;SDS011;702;49.466;11.086;2022-07-12T09:22:55;0.77;;;0.60;;
1414;SDS011;702;49.466;11.086;2022-07-12T09:25:24;1.37;;;0.70;;
1414;SDS011;702;49.466;11.086;2022-07-12T09:27:53;5.30;;;1.30;;
1414;SDS011;702;49.466;11.086;2022-07-12T09:30:24;2.20;;;0.90;;
1414;SDS011;702;49.466;11.086;2022-07-12T09:33:03;1.13;;;0.93;;
1414;SDS011;702;49.466;11.086;2022-07-12T09:35:59;1.00;;;0.87;;
1414;SDS011;702;49.466;11.086;2022-07-12T09:38:33;1.03;;;1.00;;
1414;SDS011;702;49.466;11.086;2022-07-12T09:41:02;0.80;;;0.80;;
1414;SDS011;702;49.466;11.086;2022-07-12T09:43:30;1.13;;;0.83;;
1414;SDS011;702;49.466;11.086;2022-07-12T09:45:58;1.50;;;0.90;;
1414;SDS011;702;49.466;11.086;2022-07-12T09:48:29;1.33;;;1.27;;
1414;SDS011;702;49.466;11.086;2022-07-12T09:50:56;1.10;;;1.00;;
1414;SDS011;702;49.466;11.086;2022-07-12T09:53:27;1.37;;;1.00;;
1414;SDS011;702;49.466;11.086;2022-07-12T09:55:59;0.90;;;0.90;;
1414;SDS011;702;49.466;11.086;2022-07-12T09:58:34;1.10;;;1.10;;
1414;SDS011;702;49.466;11.086;2022-07-12T10:01:06;2.33;;;0.97;;
1414;SDS011;702;49.466;11.086;2022-07-12T10:03:36;1.50;;;1.40;;
1414;SDS011;702;49.466;11.086;2022-07-12T10:06:06;1.20;;;1.10;;
1414;SDS011;702;49.466;11.086;2022-07-12T10:08:35;1.80;;;0.90;;
1414;SDS011;702;49.466;11.086;2022-07-12T10:11:02;1.77;;;1.00;;
1414;SDS011;702;49.466;11.086;2022-07-12T10:13:31;1.30;;;1.20;;
1414;SDS011;702;49.466;11.086;2022-07-12T10:16:00;0.83;;;0.83;;
1414;SDS011;702;49.466;11.086;2022-07-12T10:18:29;1.10;;;1.10;;
1414;SDS011;702;49.466;11.086;2022-07-12T10:20:58;1.00;;;1.00;;
1414;SDS011;702;49.466;11.086;2022-07-12T10:26:36;3.13;;;1.00;;
1414;SDS011;702;49.466;11.086;2022-07-12T10:29:05;0.70;;;0.70;;
1414;SDS011;702;49.466;11.086;2022-07-12T10:31:35;2.50;;;1.23;;
1414;SDS011;702;49.466;11.086;2022-07-12T10:34:08;0.97;;;0.97;;
1414;SDS011;702;49.466;11.086;2022-07-12T10:39:39;0.70;;;0.70;;
1414;SDS011;702;49.466;11.086;2022-07-12T10:42:12;0.87;;;0.87;;
1414;SDS011;702;49.466;11.086;2022-07-12T10:44:43;0.70;;;0.70;;
1414;SDS011;702;49.466;11.086;2022-07-12T10:47:12;4.47;;;1.67;;
1414;SDS011;702;49.466;11.086;2022-07-12T10:49:47;0.70;;;0.70;;
1414;SDS011;702;49.466;11.086;2022-07-12T10:52:25;1.07;;;0.80;;
1414;SDS011;702;49.466;11.086;2022-07-12T10:57:44;0.80;;;0.80;;
1414;SDS011;702;49.466;11.086;2022-07-12T11:00:16;2.10;;;0.83;;
1414;SDS011;702;49.466;11.086;2022-07-12T11:02:44;0.97;;;0.97;;
1414;SDS011;702;49.466;11.086;2022-07-12T11:05:12;1.97;;;0.90;;
1414;SDS011;702;49.466;11.086;2022-07-12T11:07:41;1.50;;;1.40;;
1414;SDS011;702;49.466;11.086;2022-07-12T11:10:11;0.80;;;0.80;;
1414;SDS011;702;49.466;11.086;2022-07-12T11:12:39;1.27;;;0.80;;
1414;SDS011;702;49.466;11.086;2022-07-12T11:15:07;2.87;;;0.80;;
1414;SDS011;702;49.466;11.086;2022-07-12T11:17:35;1.00;;;0.87;;
1414;SDS011;702;49.466;11.086;2022-07-12T11:20:04;1.03;;;0.80;;
1414;SDS011;702;49.466;11.086;2022-07-12T11:22:35;0.90;;;0.80;;
1414;SDS011;702;49.466;11.086;2022-07-12T11:25:07;0.87;;;0.87;;
1414;SDS011;702;49.466;11.086;2022-07-12T11:27:36;1.30;;;0.80;;
1414;SDS011;702;49.466;11.086;2022-07-12T11:30:04;0.80;;;0.80;;
1414;SDS011;702;49.466;11.086;2022-07-12T11:32:34;0.90;;;0.90;;
1414;SDS011;702;49.466;11.086;2022-07-12T11:35:04;1.63;;;1.10;;
1414;SDS011;702;49.466;11.086;2022-07-12T11:37:51;0.87;;;0.70;;
1414;SDS011;702;49.466;11.086;2022-07-12T11:40:22;0.93;;;0.87;;
1414;SDS011;702;49.466;11.086;2022-07-12T11:42:55;1.67;;;0.87;;
1414;SDS011;702;49.466;11.086;2022-07-12T11:45:25;1.43;;;0.80;;
1414;SDS011;702;49.466;11.086;2022-07-12T11:47:53;1.93;;;1.00;;
1414;SDS011;702;49.466;11.086;2022-07-12T11:50:21;0.80;;;0.80;;
1414;SDS011;702;49.466;11.086;2022-07-12T11:52:49;0.80;;;0.80;;
1414;SDS011;702;49.466;11.086;2022-07-12T11:55:16;1.60;;;0.93;;
1414;SDS011;702;49.466;11.086;2022-07-12T11:57:45;0.77;;;0.77;;
1414;SDS011;702;49.466;11.086;2022-07-12T12:00:16;0.90;;;0.73;;
1414;SDS011;702;49.466;11.086;2022-07-12T12:02:50;1.03;;;0.80;;
1414;SDS011;702;49.466;11.086;2022-07-12T12:05:18;0.80;;;0.80;;
1414;SDS011;702;49.466;11.086;2022-07-12T12:07:47;1.20;;;1.10;;
1414;SDS011;702;49.466;11.086;2022-07-12T12:10:14;1.27;;;0.80;;
1414;SDS011;702;49.466;11.086;2022-07-12T12:12:43;1.43;;;0.97;;
1414;SDS011;702;49.466;11.086;2022-07-12T12:15:14;1.27;;;1.00;;
1414;SDS011;702;49.466;11.086;2022-07-12T12:17:44;1.70;;;0.80;;
1414;SDS011;702;49.466;11.086;2022-07-12T12:20:18;1.27;;;0.80;;
1414;SDS011;702;49.466;11.086;2022-07-12T12:22:48;1.80;;;1.03;;
1414;SDS011;702;49.466;11.086;2022-07-12T12:25:18;0.80;;;0.80;;
1414;SDS011;702;49.466;11.086;2022-07-12T12:27:48;1.23;;;0.70;;
1414;SDS011;702;49.466;11.086;2022-07-12T12:30:20;0.80;;;0.80;;
1414;SDS011;702;49.466;11.086;2022-07-12T12:32:49;1.20;;;1.03;;
1414;SDS011;702;49.466;11.086;2022-07-12T12:35:19;1.80;;;0.87;;
1414;SDS011;702;49.466;11.086;2022-07-12T12:37:49;0.90;;;0.80;;
1414;SDS011;702;49.466;11.086;2022-07-12T12:40:23;1.43;;;0.80;;
1414;SDS011;702;49.466;11.086;2022-07-12T12:43:04;0.93;;;0.90;;
1414;SDS011;702;49.466;11.086;2022-07-12T12:45:33;0.70;;;0.70;;
1414;SDS011;702;49.466;11.086;2022-07-12T12:48:01;0.60;;;0.60;;
1414;SDS011;702;49.466;11.086;2022-07-12T12:50:40;0.70;;;0.70;;
1414;SDS011;702;49.466;11.086;2022-07-12T12:53:10;0.80;;;0.80;;
1414;SDS011;702;49.466;11.086;2022-07-12T12:55:40;0.80;;;0.80;;
1414;SDS011;702;49.466;11.086;2022-07-12T12:58:11;0.70;;;0.70;;
1414;SDS011;702;49.466;11.086;2022-07-12T13:00:39;0.77;;;0.77;;
1414;SDS011;702;49.466;11.086;2022-07-12T13:03:10;1.20;;;0.87;;
1414;SDS011;702;49.466;11.086;2022-07-12T13:05:38;1.00;;;0.60;;
1414;SDS011;702;49.466;11.086;2022-07-12T13:08:07;0.80;;;0.80;;
1414;SDS011;702;49.466;11.086;2022-07-12T13:10:35;2.50;;;0.80;;
1414;SDS011;702;49.466;11.086;2022-07-12T13:13:04;0.90;;;0.90;;
1414;SDS011;702;49.466;11.086;2022-07-12T13:15:34;1.40;;;0.60;;
1414;SDS011;702;49.466;11.086;2022-07-12T13:18:03;1.10;;;1.00;;
1414;SDS011;702;49.466;11.086;2022-07-12T13:20:30;0.90;;;0.90;;
1414;SDS011;702;49.466;11.086;2022-07-12T13:22:59;1.67;;;1.10;;
1414;SDS011;702;49.466;11.086;2022-07-12T13:25:27;0.90;;;0.80;;
1414;SDS011;702;49.466;11.086;2022-07-12T13:27:56;0.80;;;0.80;;
1414;SDS011;702;49.466;11.086;2022-07-12T13:30:23;1.13;;;1.03;;
1414;SDS011;702;49.466;11.086;2022-07-12T13:32:51;2.20;;;0.80;;
1414;SDS011;702;49.466;11.086;2022-07-12T13:35:19;1.30;;;1.00;;
1414;SDS011;702;49.466;11.086;2022-07-12T13:37:46;0.80;;;0.80;;
1414;SDS011;702;49.466;11.086;2022-07-12T13:40:13;1.27;;;0.70;;
1414;SDS011;702;49.466;11.086;2022-07-12T13:42:42;1.47;;;0.87;;
1414;SDS011;702;49.466;11.086;2022-07-12T13:45:12;0.90;;;0.70;;
1414;SDS011;702;49.466;11.086;2022-07-12T13:47:41;1.33;;;1.23;;
1414;SDS011;702;49.466;11.086;2022-07-12T13:50:11;1.00;;;0.80;;
1414;SDS011;702;49.466;11.086;2022-07-12T13:52:41;1.27;;;0.90;;
1414;SDS011;702;49.466;11.086;2022-07-12T13:55:09;1.10;;;0.83;;
1414;SDS011;702;49.466;11.086;2022-07-12T13:57:39;0.97;;;0.97;;
1414;SDS011;702;49.466;11.086;2022-07-12T14:00:07;2.20;;;0.90;;
1414;SDS011;702;49.466;11.086;2022-07-12T14:02:37;0.93;;;0.87;;
1414;SDS011;702;49.466;11.086;2022-07-12T14:05:06;0.90;;;0.87;;
1414;SDS011;702;49.466;11.086;2022-07-12T14:07:37;1.37;;;1.20;;
1414;SDS011;702;49.466;11.086;2022-07-12T14:10:07;1.27;;;0.70;;
1414;SDS011;702;49.466;11.086;2022-07-12T14:12:36;0.70;;;0.70;;
1414;SDS011;702;49.466;11.086;2022-07-12T14:15:04;0.70;;;0.70;;
1414;SDS011;702;49.466;11.086;2022-07-12T14:18:00;0.97;;;0.80;;
1414;SDS011;702;49.466;11.086;2022-07-12T14:20:29;0.70;;;0.70;;
1414;SDS011;702;49.466;11.086;2022-07-12T14:22:58;2.93;;;1.00;;
1414;SDS011;702;49.466;11.086;2022-07-12T14:25:26;0.73;;;0.73;;
1414;SDS011;702;49.466;11.086;2022-07-12T14:27:54;1.90;;;0.77;;
1414;SDS011;702;49.466;11.086;2022-07-12T14:30:21;0.60;;;0.60;;
1414;SDS011;702;49.466;11.086;2022-07-12T14:32:49;1.00;;;0.90;;
1414;SDS011;702;49.466;11.086;2022-07-12T14:35:16;0.80;;;0.80;;
1414;SDS011;702;49.466;11.086;2022-07-12T14:37:44;0.80;;;0.80;;
1414;SDS011;702;49.466;11.086;2022-07-12T14:40:13;1.77;;;1.00;;
1414;SDS011;702;49.466;11.086;2022-07-12T14:42:40;0.73;;;0.73;;
1414;SDS011;702;49.466;11.086;2022-07-12T14:45:09;1.53;;;1.00;;
1414;SDS011;702;49.466;11.086;2022-07-12T14:47:37;0.93;;;0.90;;
1414;SDS011;702;49.466;11.086;2022-07-12T14:50:04;0.70;;;0.70;;
1414;SDS011;702;49.466;11.086;2022-07-12T14:52:33;0.80;;;0.80;;
1414;SDS011;702;49.466;11.086;2022-07-12T14:55:00;0.80;;;0.70;;
1414;SDS011;702;49.466;11.086;2022-07-12T14:57:28;1.13;;;0.63;;
1414;SDS011;702;49.466;11.086;2022-07-12T14:59:56;1.70;;;0.90;;
1414;SDS011;702;49.466;11.086;2022-07-12T15:02:23;0.70;;;0.70;;
1414;SDS011;702;49.466;11.086;2022-07-12T15:04:52;0.73;;;0.73;;
1414;SDS011;702;49.466;11.086;2022-07-12T15:07:19;0.93;;;0.80;;
1414;SDS011;702;49.466;11.086;2022-07-12T15:09:46;1.00;;;1.00;;
1414;SDS011;702;49.466;11.086;2022-07-12T15:12:13;1.57;;;0.80;;
1414;SDS011;702;49.466;11.086;2022-07-12T15:14:42;0.80;;;0.80;;
1414;SDS011;702;49.466;11.086;2022-07-12T15:17:10;3.33;;;0.90;;
1414;SDS011;702;49.466;11.086;2022-07-12T15:19:38;0.70;;;0.70;;
1414;SDS011;702;49.466;11.086;2022-07-12T15:22:05;1.73;;;0.70;;
1414;SDS011;702;49.466;11.086;2022-07-12T15:24:34;1.07;;;0.70;;
1414;SDS011;702;49.466;11.086;2022-07-12T15:27:02;0.70;;;0.70;;
1414;SDS011;702;49.466;11.086;2022-07-12T15:29:31;0.60;;;0.60;;
1414;SDS011;702;49.466;11.086;2022-07-12T15:32:00;1.47;;;1.00;;
1414;SDS011;702;49.466;11.086;2022-07-12T15:34:27;1.53;;;1.27;;